sensor_id;sensor_type;location;lat;lon;timestamp;temperature;humidity
39519;DHT22;25200;53.394;10.414;2023-08-17T00:00:15;20.40;74.10
39519;DHT22;25200;53.394;10.414;2023-08-17T00:02:43;20.40;74.20
39519;DHT22;25200;53.394;10.414;2023-08-17T00:05:09;20.40;74.30
39519;DHT22;25200;53.394;10.414;2023-08-17T00:07:35;20.40;74.20
39519;DHT22;25200;53.394;10.414;2023-08-17T00:10:00;20.40;74.30
39519;DHT22;25200;53.394;10.414;2023-08-17T00:12:26;20.30;74.30
39519;DHT22;25200;53.394;10.414;2023-08-17T00:14:52;20.30;74.40
39519;DHT22;25200;53.394;10.414;2023-08-17T00:17:18;20.30;74.40
39519;DHT22;25200;53.394;10.414;2023-08-17T00:19:44;20.30;74.40
39519;DHT22;25200;53.394;10.414;2023-08-17T00:22:10;20.30;74.40
39519;DHT22;25200;53.394;10.414;2023-08-17T00:24:36;20.30;74.40
39519;DHT22;25200;53.394;10.414;2023-08-17T00:27:02;20.30;74.40
39519;DHT22;25200;53.394;10.414;2023-08-17T00:29:29;20.30;74.40
39519;DHT22;25200;53.394;10.414;2023-08-17T00:31:54;20.20;74.40
39519;DHT22;25200;53.394;10.414;2023-08-17T00:34:20;20.20;74.50
39519;DHT22;25200;53.394;10.414;2023-08-17T00:36:46;20.20;74.50
39519;DHT22;25200;53.394;10.414;2023-08-17T00:39:11;20.20;74.40
39519;DHT22;25200;53.394;10.414;2023-08-17T00:41:37;20.20;74.50
39519;DHT22;25200;53.394;10.414;2023-08-17T00:44:03;20.20;74.50
39519;DHT22;25200;53.394;10.414;2023-08-17T00:46:30;20.20;74.60
39519;DHT22;25200;53.394;10.414;2023-08-17T00:48:56;20.20;74.70
39519;DHT22;25200;53.394;10.414;2023-08-17T00:51:23;20.10;74.60
39519;DHT22;25200;53.394;10.414;2023-08-17T00:53:51;20.10;74.60
39519;DHT22;25200;53.394;10.414;2023-08-17T00:56:17;20.10;74.70
39519;DHT22;25200;53.394;10.414;2023-08-17T00:58:43;20.10;74.70
39519;DHT22;25200;53.394;10.414;2023-08-17T01:01:09;20.10;74.80
39519;DHT22;25200;53.394;10.414;2023-08-17T01:03:35;20.10;74.90
39519;DHT22;25200;53.394;10.414;2023-08-17T01:06:02;20.00;74.80
39519;DHT22;25200;53.394;10.414;2023-08-17T01:08:29;20.00;74.90
39519;DHT22;25200;53.394;10.414;2023-08-17T01:13:56;20.00;74.90
39519;DHT22;25200;53.394;10.414;2023-08-17T01:16:31;20.00;74.80
39519;DHT22;25200;53.394;10.414;2023-08-17T01:18:58;20.00;74.90
39519;DHT22;25200;53.394;10.414;2023-08-17T01:21:34;20.00;74.90
39519;DHT22;25200;53.394;10.414;2023-08-17T01:24:03;19.90;74.90
39519;DHT22;25200;53.394;10.414;2023-08-17T01:26:29;19.90;74.90
39519;DHT22;25200;53.394;10.414;2023-08-17T01:28:57;19.90;74.90
39519;DHT22;25200;53.394;10.414;2023-08-17T01:31:38;19.90;75.00
39519;DHT22;25200;53.394;10.414;2023-08-17T01:34:08;19.90;75.00
39519;DHT22;25200;53.394;10.414;2023-08-17T01:36:46;19.90;75.00
39519;DHT22;25200;53.394;10.414;2023-08-17T01:39:16;19.90;75.10
39519;DHT22;25200;53.394;10.414;2023-08-17T01:41:43;19.90;75.10
39519;DHT22;25200;53.394;10.414;2023-08-17T01:44:09;19.80;75.10
39519;DHT22;25200;53.394;10.414;2023-08-17T01:46:35;19.80;75.10
39519;DHT22;25200;53.394;10.414;2023-08-17T01:49:01;19.80;75.10
39519;DHT22;25200;53.394;10.414;2023-08-17T01:51:27;19.80;75.10
39519;DHT22;25200;53.394;10.414;2023-08-17T01:53:53;19.80;75.10
39519;DHT22;25200;53.394;10.414;2023-08-17T01:56:18;19.80;75.20
39519;DHT22;25200;53.394;10.414;2023-08-17T01:58:44;19.80;75.20
39519;DHT22;25200;53.394;10.414;2023-08-17T02:01:10;19.80;75.40
39519;DHT22;25200;53.394;10.414;2023-08-17T02:03:35;19.70;75.20
39519;DHT22;25200;53.394;10.414;2023-08-17T02:06:01;19.80;75.40
39519;DHT22;25200;53.394;10.414;2023-08-17T02:08:27;19.70;75.90
39519;DHT22;25200;53.394;10.414;2023-08-17T02:10:53;19.70;75.60
39519;DHT22;25200;53.394;10.414;2023-08-17T02:13:18;19.70;75.60
39519;DHT22;25200;53.394;10.414;2023-08-17T02:15:46;19.70;75.50
39519;DHT22;25200;53.394;10.414;2023-08-17T02:18:11;19.70;75.60
39519;DHT22;25200;53.394;10.414;2023-08-17T02:20:37;19.70;75.60
39519;DHT22;25200;53.394;10.414;2023-08-17T02:23:03;19.70;75.60
39519;DHT22;25200;53.394;10.414;2023-08-17T02:25:29;19.70;75.60
39519;DHT22;25200;53.394;10.414;2023-08-17T02:28:01;19.70;75.90
39519;DHT22;25200;53.394;10.414;2023-08-17T02:30:27;19.70;76.00
39519;DHT22;25200;53.394;10.414;2023-08-17T02:32:53;19.60;75.70
39519;DHT22;25200;53.394;10.414;2023-08-17T02:35:19;19.60;75.90
39519;DHT22;25200;53.394;10.414;2023-08-17T02:37:44;19.60;75.90
39519;DHT22;25200;53.394;10.414;2023-08-17T02:40:10;19.60;75.90
39519;DHT22;25200;53.394;10.414;2023-08-17T02:42:36;19.60;76.10
39519;DHT22;25200;53.394;10.414;2023-08-17T02:45:02;19.60;76.10
39519;DHT22;25200;53.394;10.414;2023-08-17T02:47:28;19.60;76.20
39519;DHT22;25200;53.394;10.414;2023-08-17T02:49:53;19.60;76.60
39519;DHT22;25200;53.394;10.414;2023-08-17T02:52:19;19.60;76.20
39519;DHT22;25200;53.394;10.414;2023-08-17T02:54:45;19.60;76.10
39519;DHT22;25200;53.394;10.414;2023-08-17T02:57:11;19.60;76.10
39519;DHT22;25200;53.394;10.414;2023-08-17T02:59:37;19.70;76.10
39519;DHT22;25200;53.394;10.414;2023-08-17T03:02:02;19.60;76.30
39519;DHT22;25200;53.394;10.414;2023-08-17T03:04:28;19.60;76.10
39519;DHT22;25200;53.394;10.414;2023-08-17T03:06:54;19.60;76.10
39519;DHT22;25200;53.394;10.414;2023-08-17T03:09:19;19.60;76.20
39519;DHT22;25200;53.394;10.414;2023-08-17T03:11:45;19.60;76.30
39519;DHT22;25200;53.394;10.414;2023-08-17T03:14:11;19.60;76.20
39519;DHT22;25200;53.394;10.414;2023-08-17T03:16:37;19.60;76.20
39519;DHT22;25200;53.394;10.414;2023-08-17T03:19:04;19.60;76.30
39519;DHT22;25200;53.394;10.414;2023-08-17T03:21:30;19.60;76.30
39519;DHT22;25200;53.394;10.414;2023-08-17T03:23:56;19.60;76.40
39519;DHT22;25200;53.394;10.414;2023-08-17T03:26:21;19.60;76.30
39519;DHT22;25200;53.394;10.414;2023-08-17T03:28:47;19.60;76.30
39519;DHT22;25200;53.394;10.414;2023-08-17T03:31:12;19.60;76.40
39519;DHT22;25200;53.394;10.414;2023-08-17T03:33:38;19.60;76.30
39519;DHT22;25200;53.394;10.414;2023-08-17T03:36:06;19.60;76.50
39519;DHT22;25200;53.394;10.414;2023-08-17T03:38:32;19.60;76.40
39519;DHT22;25200;53.394;10.414;2023-08-17T03:40:58;19.60;76.50
39519;DHT22;25200;53.394;10.414;2023-08-17T03:43:23;19.60;76.30
39519;DHT22;25200;53.394;10.414;2023-08-17T03:45:50;19.60;76.50
39519;DHT22;25200;53.394;10.414;2023-08-17T03:48:16;19.60;76.50
39519;DHT22;25200;53.394;10.414;2023-08-17T03:50:42;19.60;76.30
39519;DHT22;25200;53.394;10.414;2023-08-17T03:53:08;19.60;76.30
39519;DHT22;25200;53.394;10.414;2023-08-17T03:55:33;19.60;76.40
39519;DHT22;25200;53.394;10.414;2023-08-17T03:57:59;19.60;76.40
39519;DHT22;25200;53.394;10.414;2023-08-17T04:00:25;19.60;76.60
39519;DHT22;25200;53.394;10.414;2023-08-17T04:02:50;19.60;76.40
39519;DHT22;25200;53.394;10.414;2023-08-17T04:05:16;19.60;76.40
39519;DHT22;25200;53.394;10.414;2023-08-17T04:07:42;19.60;76.40
39519;DHT22;25200;53.394;10.414;2023-08-17T04:10:08;19.60;76.40
39519;DHT22;25200;53.394;10.414;2023-08-17T04:12:34;19.60;76.40
39519;DHT22;25200;53.394;10.414;2023-08-17T04:15:00;19.60;76.50
39519;DHT22;25200;53.394;10.414;2023-08-17T04:17:26;19.60;76.40
39519;DHT22;25200;53.394;10.414;2023-08-17T04:19:51;19.70;76.60
39519;DHT22;25200;53.394;10.414;2023-08-17T04:22:17;19.70;76.70
39519;DHT22;25200;53.394;10.414;2023-08-17T04:24:43;19.70;76.60
39519;DHT22;25200;53.394;10.414;2023-08-17T04:27:08;19.60;76.60
39519;DHT22;25200;53.394;10.414;2023-08-17T04:29:34;19.60;76.70
39519;DHT22;25200;53.394;10.414;2023-08-17T04:32:00;19.60;76.60
39519;DHT22;25200;53.394;10.414;2023-08-17T04:34:26;19.60;76.50
39519;DHT22;25200;53.394;10.414;2023-08-17T04:36:51;19.60;76.60
39519;DHT22;25200;53.394;10.414;2023-08-17T04:39:17;19.60;76.60
39519;DHT22;25200;53.394;10.414;2023-08-17T04:41:43;19.60;76.80
39519;DHT22;25200;53.394;10.414;2023-08-17T04:44:08;19.50;76.50
39519;DHT22;25200;53.394;10.414;2023-08-17T04:46:35;19.50;76.80
39519;DHT22;25200;53.394;10.414;2023-08-17T04:49:00;19.60;76.90
39519;DHT22;25200;53.394;10.414;2023-08-17T04:51:26;19.50;76.90
39519;DHT22;25200;53.394;10.414;2023-08-17T04:53:52;19.50;76.80
39519;DHT22;25200;53.394;10.414;2023-08-17T04:56:17;19.50;77.00
39519;DHT22;25200;53.394;10.414;2023-08-17T04:58:43;19.50;77.20
39519;DHT22;25200;53.394;10.414;2023-08-17T05:01:09;19.50;77.10
39519;DHT22;25200;53.394;10.414;2023-08-17T05:03:35;19.50;77.20
39519;DHT22;25200;53.394;10.414;2023-08-17T05:06:01;19.40;77.10
39519;DHT22;25200;53.394;10.414;2023-08-17T05:08:27;19.40;77.20
39519;DHT22;25200;53.394;10.414;2023-08-17T05:10:52;19.40;77.40
39519;DHT22;25200;53.394;10.414;2023-08-17T05:13:19;19.40;77.40
39519;DHT22;25200;53.394;10.414;2023-08-17T05:15:44;19.40;77.60
39519;DHT22;25200;53.394;10.414;2023-08-17T05:18:10;19.40;77.50
39519;DHT22;25200;53.394;10.414;2023-08-17T05:20:36;19.40;77.50
39519;DHT22;25200;53.394;10.414;2023-08-17T05:23:01;19.40;77.70
39519;DHT22;25200;53.394;10.414;2023-08-17T05:25:27;19.40;77.80
39519;DHT22;25200;53.394;10.414;2023-08-17T05:27:55;19.40;77.60
39519;DHT22;25200;53.394;10.414;2023-08-17T05:30:20;19.40;77.70
39519;DHT22;25200;53.394;10.414;2023-08-17T05:32:46;19.40;77.90
39519;DHT22;25200;53.394;10.414;2023-08-17T05:35:12;19.40;77.90
39519;DHT22;25200;53.394;10.414;2023-08-17T05:37:37;19.40;78.00
39519;DHT22;25200;53.394;10.414;2023-08-17T05:40:03;19.40;78.00
39519;DHT22;25200;53.394;10.414;2023-08-17T05:42:30;19.40;78.00
39519;DHT22;25200;53.394;10.414;2023-08-17T05:44:56;19.40;78.10
39519;DHT22;25200;53.394;10.414;2023-08-17T05:47:21;19.30;78.20
39519;DHT22;25200;53.394;10.414;2023-08-17T05:49:47;19.40;78.30
39519;DHT22;25200;53.394;10.414;2023-08-17T05:52:12;19.30;78.60
39519;DHT22;25200;53.394;10.414;2023-08-17T05:54:38;19.30;78.70
39519;DHT22;25200;53.394;10.414;2023-08-17T05:57:04;19.30;78.80
39519;DHT22;25200;53.394;10.414;2023-08-17T05:59:30;19.30;78.60
39519;DHT22;25200;53.394;10.414;2023-08-17T06:01:55;19.30;78.50
39519;DHT22;25200;53.394;10.414;2023-08-17T06:04:21;19.30;78.50
39519;DHT22;25200;53.394;10.414;2023-08-17T06:06:47;19.30;78.80
39519;DHT22;25200;53.394;10.414;2023-08-17T06:09:12;19.20;79.30
39519;DHT22;25200;53.394;10.414;2023-08-17T06:11:39;19.20;78.50
39519;DHT22;25200;53.394;10.414;2023-08-17T06:14:05;19.20;78.60
39519;DHT22;25200;53.394;10.414;2023-08-17T06:16:31;19.20;78.70
39519;DHT22;25200;53.394;10.414;2023-08-17T06:18:57;19.20;78.70
39519;DHT22;25200;53.394;10.414;2023-08-17T06:21:22;19.20;78.60
39519;DHT22;25200;53.394;10.414;2023-08-17T06:23:48;19.10;78.80
39519;DHT22;25200;53.394;10.414;2023-08-17T06:26:14;19.20;78.70
39519;DHT22;25200;53.394;10.414;2023-08-17T06:28:39;19.10;78.90
39519;DHT22;25200;53.394;10.414;2023-08-17T06:31:05;19.10;78.70
39519;DHT22;25200;53.394;10.414;2023-08-17T06:33:31;19.10;78.90
39519;DHT22;25200;53.394;10.414;2023-08-17T06:35:56;19.00;78.70
39519;DHT22;25200;53.394;10.414;2023-08-17T06:38:22;19.00;78.70
39519;DHT22;25200;53.394;10.414;2023-08-17T06:40:48;19.00;78.70
39519;DHT22;25200;53.394;10.414;2023-08-17T06:43:13;19.00;78.80
39519;DHT22;25200;53.394;10.414;2023-08-17T06:45:39;18.90;78.70
39519;DHT22;25200;53.394;10.414;2023-08-17T06:48:05;18.90;79.00
39519;DHT22;25200;53.394;10.414;2023-08-17T06:50:31;18.90;78.80
39519;DHT22;25200;53.394;10.414;2023-08-17T06:52:56;18.80;78.70
39519;DHT22;25200;53.394;10.414;2023-08-17T06:55:22;18.80;78.70
39519;DHT22;25200;53.394;10.414;2023-08-17T06:57:48;18.80;78.70
39519;DHT22;25200;53.394;10.414;2023-08-17T07:00:17;18.80;78.80
39519;DHT22;25200;53.394;10.414;2023-08-17T07:02:46;18.80;79.00
39519;DHT22;25200;53.394;10.414;2023-08-17T07:05:16;18.80;78.80
39519;DHT22;25200;53.394;10.414;2023-08-17T07:07:43;18.80;78.90
39519;DHT22;25200;53.394;10.414;2023-08-17T07:10:10;18.80;78.80
39519;DHT22;25200;53.394;10.414;2023-08-17T07:12:39;18.80;78.80
39519;DHT22;25200;53.394;10.414;2023-08-17T07:15:06;18.80;78.90
39519;DHT22;25200;53.394;10.414;2023-08-17T07:17:32;18.80;79.20
39519;DHT22;25200;53.394;10.414;2023-08-17T07:20:00;18.80;79.20
39519;DHT22;25200;53.394;10.414;2023-08-17T07:22:25;18.80;79.30
39519;DHT22;25200;53.394;10.414;2023-08-17T07:24:51;18.80;79.20
39519;DHT22;25200;53.394;10.414;2023-08-17T07:27:16;18.80;79.40
39519;DHT22;25200;53.394;10.414;2023-08-17T07:29:42;18.80;79.30
39519;DHT22;25200;53.394;10.414;2023-08-17T07:32:08;18.80;79.20
39519;DHT22;25200;53.394;10.414;2023-08-17T07:34:35;18.80;79.20
39519;DHT22;25200;53.394;10.414;2023-08-17T07:37:01;18.80;79.40
39519;DHT22;25200;53.394;10.414;2023-08-17T07:39:26;18.80;79.30
39519;DHT22;25200;53.394;10.414;2023-08-17T07:41:52;18.80;79.30
39519;DHT22;25200;53.394;10.414;2023-08-17T07:44:18;18.80;79.30
39519;DHT22;25200;53.394;10.414;2023-08-17T07:46:43;18.80;79.30
39519;DHT22;25200;53.394;10.414;2023-08-17T07:49:09;18.80;79.10
39519;DHT22;25200;53.394;10.414;2023-08-17T07:51:35;18.80;79.10
39519;DHT22;25200;53.394;10.414;2023-08-17T07:54:00;18.90;79.30
39519;DHT22;25200;53.394;10.414;2023-08-17T07:56:26;18.90;79.20
39519;DHT22;25200;53.394;10.414;2023-08-17T07:58:53;18.90;79.30
39519;DHT22;25200;53.394;10.414;2023-08-17T08:01:19;18.90;79.30
39519;DHT22;25200;53.394;10.414;2023-08-17T08:03:45;18.90;79.50
39519;DHT22;25200;53.394;10.414;2023-08-17T08:06:11;18.90;79.40
39519;DHT22;25200;53.394;10.414;2023-08-17T08:08:37;19.00;79.60
39519;DHT22;25200;53.394;10.414;2023-08-17T08:11:02;19.00;79.80
39519;DHT22;25200;53.394;10.414;2023-08-17T08:13:30;18.90;79.40
39519;DHT22;25200;53.394;10.414;2023-08-17T08:15:56;18.90;79.50
39519;DHT22;25200;53.394;10.414;2023-08-17T08:18:21;18.90;79.50
39519;DHT22;25200;53.394;10.414;2023-08-17T08:20:48;18.90;79.30
39519;DHT22;25200;53.394;10.414;2023-08-17T08:23:14;18.90;79.50
39519;DHT22;25200;53.394;10.414;2023-08-17T08:25:40;18.80;79.60
39519;DHT22;25200;53.394;10.414;2023-08-17T08:28:06;18.80;79.70
39519;DHT22;25200;53.394;10.414;2023-08-17T08:30:32;18.80;79.70
39519;DHT22;25200;53.394;10.414;2023-08-17T08:32:57;18.80;79.70
39519;DHT22;25200;53.394;10.414;2023-08-17T08:35:24;18.70;79.60
39519;DHT22;25200;53.394;10.414;2023-08-17T08:37:50;18.70;79.70
39519;DHT22;25200;53.394;10.414;2023-08-17T08:40:17;18.70;79.60
39519;DHT22;25200;53.394;10.414;2023-08-17T08:42:43;18.70;79.60
39519;DHT22;25200;53.394;10.414;2023-08-17T08:45:10;18.70;79.90
39519;DHT22;25200;53.394;10.414;2023-08-17T08:47:40;18.60;79.90
39519;DHT22;25200;53.394;10.414;2023-08-17T08:50:08;18.70;80.00
39519;DHT22;25200;53.394;10.414;2023-08-17T08:52:36;18.60;79.80
39519;DHT22;25200;53.394;10.414;2023-08-17T08:55:16;18.60;79.90
39519;DHT22;25200;53.394;10.414;2023-08-17T08:57:42;18.60;80.40
39519;DHT22;25200;53.394;10.414;2023-08-17T09:00:09;18.60;79.70
39519;DHT22;25200;53.394;10.414;2023-08-17T09:02:35;18.70;80.00
39519;DHT22;25200;53.394;10.414;2023-08-17T09:05:01;18.70;80.00
39519;DHT22;25200;53.394;10.414;2023-08-17T09:07:29;18.70;80.00
39519;DHT22;25200;53.394;10.414;2023-08-17T09:09:56;18.70;79.90
39519;DHT22;25200;53.394;10.414;2023-08-17T09:12:22;18.70;79.90
39519;DHT22;25200;53.394;10.414;2023-08-17T09:14:48;18.70;79.90
39519;DHT22;25200;53.394;10.414;2023-08-17T09:17:23;18.70;80.30
39519;DHT22;25200;53.394;10.414;2023-08-17T09:19:49;18.70;79.80
39519;DHT22;25200;53.394;10.414;2023-08-17T09:22:25;18.70;79.90
39519;DHT22;25200;53.394;10.414;2023-08-17T09:24:51;18.60;80.00
39519;DHT22;25200;53.394;10.414;2023-08-17T09:27:17;18.60;79.90
39519;DHT22;25200;53.394;10.414;2023-08-17T09:29:43;18.60;79.90
39519;DHT22;25200;53.394;10.414;2023-08-17T09:32:11;18.60;79.80
39519;DHT22;25200;53.394;10.414;2023-08-17T09:34:41;18.60;79.90
39519;DHT22;25200;53.394;10.414;2023-08-17T09:37:08;18.60;80.10
39519;DHT22;25200;53.394;10.414;2023-08-17T09:39:33;18.60;80.20
39519;DHT22;25200;53.394;10.414;2023-08-17T09:42:00;18.50;80.00
39519;DHT22;25200;53.394;10.414;2023-08-17T09:44:26;18.50;80.00
39519;DHT22;25200;53.394;10.414;2023-08-17T09:46:54;18.50;80.20
39519;DHT22;25200;53.394;10.414;2023-08-17T09:49:20;18.40;79.90
39519;DHT22;25200;53.394;10.414;2023-08-17T09:51:48;18.40;80.00
39519;DHT22;25200;53.394;10.414;2023-08-17T09:54:21;18.40;79.90
39519;DHT22;25200;53.394;10.414;2023-08-17T09:56:52;18.40;80.00
39519;DHT22;25200;53.394;10.414;2023-08-17T09:59:18;18.40;80.00
39519;DHT22;25200;53.394;10.414;2023-08-17T10:01:49;18.40;80.00
39519;DHT22;25200;53.394;10.414;2023-08-17T10:04:22;18.40;79.90
39519;DHT22;25200;53.394;10.414;2023-08-17T10:06:52;18.40;79.90
39519;DHT22;25200;53.394;10.414;2023-08-17T10:09:28;18.40;80.10
39519;DHT22;25200;53.394;10.414;2023-08-17T10:11:57;18.40;80.00
39519;DHT22;25200;53.394;10.414;2023-08-17T10:14:29;18.40;80.00
39519;DHT22;25200;53.394;10.414;2023-08-17T10:17:06;18.40;79.90
39519;DHT22;25200;53.394;10.414;2023-08-17T10:19:52;18.40;79.90
39519;DHT22;25200;53.394;10.414;2023-08-17T10:25:04;18.40;80.00
39519;DHT22;25200;53.394;10.414;2023-08-17T10:27:32;18.30;79.90
39519;DHT22;25200;53.394;10.414;2023-08-17T10:29:59;18.30;79.90
39519;DHT22;25200;53.394;10.414;2023-08-17T10:32:25;18.30;79.90
39519;DHT22;25200;53.394;10.414;2023-08-17T10:34:53;18.30;79.90
39519;DHT22;25200;53.394;10.414;2023-08-17T10:37:20;18.30;79.90
39519;DHT22;25200;53.394;10.414;2023-08-17T10:39:47;18.30;80.00
39519;DHT22;25200;53.394;10.414;2023-08-17T10:42:14;18.30;79.90
39519;DHT22;25200;53.394;10.414;2023-08-17T10:44:46;18.30;80.00
39519;DHT22;25200;53.394;10.414;2023-08-17T10:47:30;18.20;79.90
39519;DHT22;25200;53.394;10.414;2023-08-17T10:50:05;18.20;80.00
39519;DHT22;25200;53.394;10.414;2023-08-17T10:52:33;18.20;80.00
39519;DHT22;25200;53.394;10.414;2023-08-17T10:55:04;18.20;79.90
39519;DHT22;25200;53.394;10.414;2023-08-17T11:02:34;18.20;79.90
39519;DHT22;25200;53.394;10.414;2023-08-17T11:05:00;18.20;80.00
39519;DHT22;25200;53.394;10.414;2023-08-17T11:07:27;18.20;79.90
39519;DHT22;25200;53.394;10.414;2023-08-17T11:09:53;18.20;80.00
39519;DHT22;25200;53.394;10.414;2023-08-17T11:12:26;18.30;80.00
39519;DHT22;25200;53.394;10.414;2023-08-17T11:14:52;18.30;79.90
39519;DHT22;25200;53.394;10.414;2023-08-17T11:17:20;18.30;79.80
39519;DHT22;25200;53.394;10.414;2023-08-17T11:19:46;18.30;79.90
39519;DHT22;25200;53.394;10.414;2023-08-17T11:22:12;18.30;80.10
39519;DHT22;25200;53.394;10.414;2023-08-17T11:24:38;18.30;80.00
39519;DHT22;25200;53.394;10.414;2023-08-17T11:27:05;18.30;79.90
39519;DHT22;25200;53.394;10.414;2023-08-17T11:29:33;18.30;79.80
39519;DHT22;25200;53.394;10.414;2023-08-17T11:31:59;18.40;80.00
39519;DHT22;25200;53.394;10.414;2023-08-17T11:34:25;18.40;80.00
39519;DHT22;25200;53.394;10.414;2023-08-17T11:36:50;18.40;80.00
39519;DHT22;25200;53.394;10.414;2023-08-17T11:39:16;18.40;79.90
39519;DHT22;25200;53.394;10.414;2023-08-17T11:41:45;18.40;79.90
39519;DHT22;25200;53.394;10.414;2023-08-17T11:44:11;18.40;80.00
39519;DHT22;25200;53.394;10.414;2023-08-17T11:46:38;18.40;79.90
39519;DHT22;25200;53.394;10.414;2023-08-17T11:49:03;18.40;80.40
39519;DHT22;25200;53.394;10.414;2023-08-17T11:51:31;18.40;79.90
39519;DHT22;25200;53.394;10.414;2023-08-17T11:54:00;18.50;80.10
39519;DHT22;25200;53.394;10.414;2023-08-17T11:56:26;18.50;80.00
39519;DHT22;25200;53.394;10.414;2023-08-17T11:58:52;18.50;79.90
39519;DHT22;25200;53.394;10.414;2023-08-17T12:01:17;18.50;80.10
39519;DHT22;25200;53.394;10.414;2023-08-17T12:03:43;18.50;80.10
39519;DHT22;25200;53.394;10.414;2023-08-17T12:06:10;18.50;80.10
39519;DHT22;25200;53.394;10.414;2023-08-17T12:08:38;18.50;80.00
39519;DHT22;25200;53.394;10.414;2023-08-17T12:11:03;18.50;80.10
39519;DHT22;25200;53.394;10.414;2023-08-17T12:13:33;18.50;80.10
39519;DHT22;25200;53.394;10.414;2023-08-17T12:15:59;18.50;80.10
39519;DHT22;25200;53.394;10.414;2023-08-17T12:18:25;18.50;80.10
39519;DHT22;25200;53.394;10.414;2023-08-17T12:20:55;18.60;80.20
39519;DHT22;25200;53.394;10.414;2023-08-17T12:23:21;18.60;80.20
39519;DHT22;25200;53.394;10.414;2023-08-17T12:25:55;18.60;80.20
39519;DHT22;25200;53.394;10.414;2023-08-17T12:28:22;18.60;80.10
39519;DHT22;25200;53.394;10.414;2023-08-17T12:31:00;18.70;80.10
39519;DHT22;25200;53.394;10.414;2023-08-17T12:33:26;18.70;80.10
39519;DHT22;25200;53.394;10.414;2023-08-17T12:35:52;18.70;80.00
39519;DHT22;25200;53.394;10.414;2023-08-17T12:38:17;18.70;79.80
39519;DHT22;25200;53.394;10.414;2023-08-17T12:40:43;18.70;80.00
39519;DHT22;25200;53.394;10.414;2023-08-17T12:43:09;18.70;79.90
39519;DHT22;25200;53.394;10.414;2023-08-17T12:45:34;18.80;79.90
39519;DHT22;25200;53.394;10.414;2023-08-17T12:48:00;18.80;80.00
39519;DHT22;25200;53.394;10.414;2023-08-17T12:50:26;18.80;79.80
39519;DHT22;25200;53.394;10.414;2023-08-17T12:52:51;18.80;79.90
39519;DHT22;25200;53.394;10.414;2023-08-17T12:55:17;18.90;80.00
39519;DHT22;25200;53.394;10.414;2023-08-17T12:57:43;18.80;79.90
39519;DHT22;25200;53.394;10.414;2023-08-17T13:00:08;18.90;80.00
39519;DHT22;25200;53.394;10.414;2023-08-17T13:02:34;18.90;79.90
39519;DHT22;25200;53.394;10.414;2023-08-17T13:05:00;18.90;80.00
39519;DHT22;25200;53.394;10.414;2023-08-17T13:07:26;18.90;79.90
39519;DHT22;25200;53.394;10.414;2023-08-17T13:09:51;18.90;79.80
39519;DHT22;25200;53.394;10.414;2023-08-17T13:12:17;18.90;80.00
39519;DHT22;25200;53.394;10.414;2023-08-17T13:14:42;18.90;80.10
39519;DHT22;25200;53.394;10.414;2023-08-17T13:17:08;18.90;80.10
39519;DHT22;25200;53.394;10.414;2023-08-17T13:19:34;18.90;80.20
39519;DHT22;25200;53.394;10.414;2023-08-17T13:22:00;18.90;80.00
39519;DHT22;25200;53.394;10.414;2023-08-17T13:24:25;19.00;80.30
39519;DHT22;25200;53.394;10.414;2023-08-17T13:26:51;19.00;80.30
39519;DHT22;25200;53.394;10.414;2023-08-17T13:29:20;19.00;80.30
39519;DHT22;25200;53.394;10.414;2023-08-17T13:31:49;19.00;80.60
39519;DHT22;25200;53.394;10.414;2023-08-17T13:34:14;19.00;80.60
39519;DHT22;25200;53.394;10.414;2023-08-17T13:36:40;19.00;80.60
39519;DHT22;25200;53.394;10.414;2023-08-17T13:39:06;19.00;80.70
39519;DHT22;25200;53.394;10.414;2023-08-17T13:41:32;18.90;80.50
39519;DHT22;25200;53.394;10.414;2023-08-17T13:43:58;18.90;80.60
39519;DHT22;25200;53.394;10.414;2023-08-17T13:46:24;18.90;80.60
39519;DHT22;25200;53.394;10.414;2023-08-17T13:48:49;18.90;80.70
39519;DHT22;25200;53.394;10.414;2023-08-17T13:51:15;18.90;80.60
39519;DHT22;25200;53.394;10.414;2023-08-17T13:53:40;18.90;80.70
39519;DHT22;25200;53.394;10.414;2023-08-17T13:56:06;18.90;80.70
39519;DHT22;25200;53.394;10.414;2023-08-17T13:58:32;18.90;81.00
39519;DHT22;25200;53.394;10.414;2023-08-17T14:00:57;18.90;81.10
39519;DHT22;25200;53.394;10.414;2023-08-17T14:03:24;18.90;81.00
39519;DHT22;25200;53.394;10.414;2023-08-17T14:05:49;18.90;81.00
39519;DHT22;25200;53.394;10.414;2023-08-17T14:08:15;18.90;81.00
39519;DHT22;25200;53.394;10.414;2023-08-17T14:10:41;18.90;81.20
39519;DHT22;25200;53.394;10.414;2023-08-17T14:13:06;18.90;81.20
39519;DHT22;25200;53.394;10.414;2023-08-17T14:15:32;18.90;81.20
39519;DHT22;25200;53.394;10.414;2023-08-17T14:17:58;18.90;81.30
39519;DHT22;25200;53.394;10.414;2023-08-17T14:20:24;18.90;81.00
39519;DHT22;25200;53.394;10.414;2023-08-17T14:22:49;18.90;81.50
39519;DHT22;25200;53.394;10.414;2023-08-17T14:25:15;18.90;81.30
39519;DHT22;25200;53.394;10.414;2023-08-17T14:27:41;18.90;81.10
39519;DHT22;25200;53.394;10.414;2023-08-17T14:30:07;18.90;81.30
39519;DHT22;25200;53.394;10.414;2023-08-17T14:32:33;18.90;81.40
39519;DHT22;25200;53.394;10.414;2023-08-17T14:34:58;18.90;81.30
39519;DHT22;25200;53.394;10.414;2023-08-17T14:37:24;18.90;81.30
39519;DHT22;25200;53.394;10.414;2023-08-17T14:39:50;18.90;81.10
39519;DHT22;25200;53.394;10.414;2023-08-17T14:42:15;18.90;81.20
39519;DHT22;25200;53.394;10.414;2023-08-17T14:44:41;18.90;81.20
39519;DHT22;25200;53.394;10.414;2023-08-17T14:47:06;18.90;81.20
39519;DHT22;25200;53.394;10.414;2023-08-17T14:49:32;18.90;81.40
39519;DHT22;25200;53.394;10.414;2023-08-17T14:51:58;18.90;81.30
39519;DHT22;25200;53.394;10.414;2023-08-17T14:54:24;18.90;81.30
39519;DHT22;25200;53.394;10.414;2023-08-17T14:56:51;18.90;81.40
39519;DHT22;25200;53.394;10.414;2023-08-17T14:59:16;18.90;81.40
39519;DHT22;25200;53.394;10.414;2023-08-17T15:01:43;18.90;81.50
39519;DHT22;25200;53.394;10.414;2023-08-17T15:04:09;18.90;81.50
39519;DHT22;25200;53.394;10.414;2023-08-17T15:06:35;18.90;81.60
39519;DHT22;25200;53.394;10.414;2023-08-17T15:09:01;18.90;81.40
39519;DHT22;25200;53.394;10.414;2023-08-17T15:11:28;18.90;81.40
39519;DHT22;25200;53.394;10.414;2023-08-17T15:13:54;18.90;81.70
39519;DHT22;25200;53.394;10.414;2023-08-17T15:16:19;18.90;81.40
39519;DHT22;25200;53.394;10.414;2023-08-17T15:18:52;18.90;81.40
39519;DHT22;25200;53.394;10.414;2023-08-17T15:21:18;18.90;81.50